Buen Pasto, Argentina
Current Conditions -  °F | °C
As of 2:00 AM on Tuesday 21 Oct 2014 (Local Time) from SAVC Reporting Station
Clear Clear  
Wind Chill: 63°   Ceiling: Unl
Heat Index: 63°   Visibility: 6mi
Dew Point: 41°   Wind: 13mph
Humidity: 45%   Direction: 270°W
Pressure: 29.62"   Gusts: NA
Location:  45.08°S, 69.47°W
Report Text: SAVC 210500Z 27011KT CAVOK 17/05 Q1003
Loading
Personal Weather Stations






























Interactive Weather Map
Tropical Storm Tracking
New forecast layout! Learn more

10-Day Weather Forecast

Advertisements
Track Severe Weather on mobile